createdAt,value
2019-04-23T00:02:24.814Z,10.40
2019-04-23T00:04:57.381Z,10.57
2019-04-23T00:10:09.613Z,10.70
2019-04-23T00:12:43.661Z,10.47
2019-04-23T00:15:10.647Z,10.10
2019-04-23T00:17:42.273Z,10.20
2019-04-23T00:20:14.690Z,10.10
2019-04-23T00:23:32.799Z,10.27
2019-04-23T00:28:35.242Z,9.87
2019-04-23T00:31:13.919Z,9.53
2019-04-23T00:33:37.243Z,9.60
2019-04-23T00:36:23.758Z,10.13
2019-04-23T00:38:45.502Z,9.17
2019-04-23T00:41:16.572Z,9.17
2019-04-23T00:43:54.838Z,9.27
2019-04-23T00:46:28.334Z,8.90
2019-04-23T00:51:33.244Z,8.70
2019-04-23T00:54:09.175Z,8.87
2019-04-23T00:56:52.635Z,8.70
2019-04-23T00:59:05.274Z,8.70
2019-04-23T01:01:55.779Z,9.30
2019-04-23T01:04:12.255Z,8.93
2019-04-23T01:06:52.301Z,8.90
2019-04-23T01:09:22.498Z,8.73
2019-04-23T01:12:03.848Z,8.90
2019-04-23T01:14:27.584Z,8.43
2019-04-23T01:17:06.049Z,8.30
2019-04-23T01:20:04.772Z,8.57
2019-04-23T01:22:16.665Z,8.53
2019-04-23T01:25:13.341Z,8.97
2019-04-23T01:28:23.632Z,8.20
2019-04-23T01:30:57.445Z,8.80
2019-04-23T01:33:32.914Z,8.80
2019-04-23T01:36:11.045Z,8.60
2019-04-23T01:38:34.409Z,8.37
2019-04-23T01:41:09.276Z,8.77
2019-04-23T01:46:16.198Z,7.43
2019-04-23T01:48:47.094Z,8.37
2019-04-23T01:51:15.005Z,8.10
2019-04-23T02:01:25.846Z,8.20
2019-04-23T02:04:04.859Z,8.53
2019-04-23T02:06:36.789Z,8.23
2019-04-23T02:09:09.613Z,7.63
2019-04-23T02:11:37.740Z,7.87
2019-04-23T02:14:11.252Z,8.27
2019-04-23T02:19:16.777Z,7.80
2019-04-23T02:21:53.741Z,8.07
2019-04-23T02:24:32.330Z,8.20
2019-04-23T02:27:01.868Z,7.67
2019-04-23T02:40:01.934Z,8.17
2019-04-23T02:42:44.956Z,7.63
2019-04-23T02:47:23.533Z,7.63
2019-04-23T02:50:09.145Z,7.50
2019-04-23T02:52:33.935Z,7.90
2019-04-23T02:55:11.162Z,7.73
2019-04-23T03:00:22.597Z,7.77
2019-04-23T03:05:11.145Z,7.50
2019-04-23T03:07:45.969Z,7.63
2019-04-23T03:10:16.014Z,7.80
2019-04-23T03:13:09.110Z,7.90
2019-04-23T03:15:50.696Z,7.77
2019-04-23T03:18:52.119Z,7.90
2019-04-23T03:21:50.219Z,8.10
2019-04-23T03:24:38.947Z,7.73
2019-04-23T03:32:45.848Z,8.63
2019-04-23T03:37:23.421Z,7.27
2019-04-23T03:39:56.788Z,7.60
2019-04-23T03:42:17.304Z,7.93
2019-04-23T03:44:56.184Z,7.57
2019-04-23T03:50:15.549Z,7.30
2019-04-23T03:52:37.016Z,8.47
2019-04-23T03:55:06.038Z,9.00
2019-04-23T04:00:15.722Z,7.80
2019-04-23T04:05:24.522Z,7.97
2019-04-23T04:10:16.554Z,7.80
2019-04-23T04:12:45.775Z,7.73
2019-04-23T04:18:13.955Z,8.07
2019-04-23T04:20:44.194Z,8.70
2019-04-23T04:23:19.752Z,7.43
2019-04-23T04:28:12.324Z,7.97
2019-04-23T04:30:47.515Z,7.97
2019-04-23T04:36:10.677Z,8.20
2019-04-23T04:43:45.340Z,7.90
2019-04-23T04:48:48.766Z,7.13
2019-04-23T05:01:22.435Z,7.47
2019-04-23T05:03:45.875Z,7.93
2019-04-23T05:06:37.888Z,7.70
2019-04-23T05:09:00.759Z,8.30
2019-04-23T05:14:08.524Z,7.20
2019-04-23T05:19:29.456Z,7.37
2019-04-23T05:24:23.228Z,7.77
2019-04-23T05:26:48.145Z,7.90
2019-04-23T05:29:19.979Z,6.57
2019-04-23T05:31:53.155Z,7.37
2019-04-23T05:34:27.418Z,7.60
2019-04-23T05:37:00.028Z,7.20
2019-04-23T05:39:35.349Z,6.50
2019-04-23T05:42:08.693Z,7.10
2019-04-23T05:44:46.204Z,7.30
2019-04-23T05:47:16.027Z,7.43
2019-04-23T05:49:47.654Z,6.90
2019-04-23T05:52:17.692Z,6.33
2019-04-23T05:54:56.230Z,6.50
2019-04-23T05:57:20.527Z,6.47
2019-04-23T05:59:54.853Z,6.63
2019-04-23T06:02:35.332Z,5.80
2019-04-23T06:05:03.810Z,7.97
2019-04-23T06:07:38.951Z,6.60
2019-04-23T06:12:36.904Z,6.20
2019-04-23T06:15:18.114Z,6.47
2019-04-23T06:17:47.909Z,6.60
2019-04-23T06:20:35.021Z,6.33
2019-04-23T06:25:40.801Z,6.40
2019-04-23T06:28:05.104Z,6.70
2019-04-23T06:30:34.281Z,5.80
2019-04-23T06:33:06.104Z,6.17
2019-04-23T06:35:43.825Z,6.03
2019-04-23T06:38:32.956Z,5.87
2019-04-23T06:40:45.316Z,6.73
2019-04-23T06:43:26.800Z,6.40
2019-04-23T06:45:49.543Z,6.00
2019-04-23T06:48:27.498Z,6.30
2019-04-23T06:51:07.942Z,5.83
2019-04-23T06:53:31.527Z,5.43
2019-04-23T06:56:08.829Z,5.63
2019-04-23T06:58:37.390Z,6.27
2019-04-23T07:01:05.266Z,5.90
2019-04-23T07:03:43.814Z,5.57
2019-04-23T07:06:28.595Z,5.83
2019-04-23T07:09:05.229Z,6.30
2019-04-23T07:13:58.639Z,5.90
2019-04-23T07:16:21.464Z,5.87
2019-04-23T07:19:19.894Z,6.10
2019-04-23T07:21:41.822Z,5.73
2019-04-23T07:24:05.721Z,5.77
2019-04-23T07:26:40.782Z,5.70
2019-04-23T07:29:09.040Z,5.40
2019-04-23T07:31:40.974Z,4.83
2019-04-23T07:36:47.696Z,5.35
2019-04-23T07:39:45.715Z,5.72
2019-04-23T07:45:10.049Z,5.20
2019-04-23T07:48:06.114Z,6.10
2019-04-23T07:50:39.398Z,6.15
2019-04-23T07:53:19.618Z,5.92
2019-04-23T07:58:22.212Z,5.67
2019-04-23T08:00:45.481Z,5.37
2019-04-23T08:05:43.714Z,5.65
2019-04-23T08:08:16.813Z,5.50
2019-04-23T08:13:47.780Z,5.85
2019-04-23T08:16:26.081Z,5.53
2019-04-23T08:18:54.403Z,5.50
2019-04-23T08:24:19.433Z,5.62
2019-04-23T08:26:59.570Z,6.00
2019-04-23T08:29:27.643Z,5.25
2019-04-23T08:32:12.224Z,5.17
2019-04-23T08:34:58.774Z,4.97
2019-04-23T08:37:15.366Z,4.97
2019-04-23T08:45:15.396Z,5.20
2019-04-23T08:48:04.163Z,5.25
2019-04-23T08:50:29.744Z,5.70
2019-04-23T08:53:05.234Z,7.78
2019-04-23T08:55:38.520Z,6.37
2019-04-23T08:58:07.873Z,4.95
2019-04-23T09:00:58.673Z,5.97
2019-04-23T09:05:56.017Z,5.85
2019-04-23T09:08:38.954Z,5.97
2019-04-23T09:11:06.768Z,12.40
2019-04-23T09:16:07.516Z,8.03
2019-04-23T09:18:37.143Z,5.97
2019-04-23T09:23:46.842Z,6.25
2019-04-23T09:26:11.009Z,6.80
2019-04-23T09:31:55.508Z,6.08
2019-04-23T09:34:09.773Z,7.12
2019-04-23T09:37:15.630Z,5.78
2019-04-23T09:42:38.082Z,7.35
2019-04-23T09:45:12.938Z,6.47
2019-04-23T09:50:38.411Z,7.08
2019-04-23T10:00:40.613Z,8.43
2019-04-23T10:03:10.680Z,6.12
2019-04-23T10:05:38.939Z,6.22
2019-04-23T10:08:08.529Z,5.47
2019-04-23T10:10:34.369Z,5.33
2019-04-23T10:13:06.154Z,7.40
2019-04-23T10:15:41.103Z,5.65
2019-04-23T10:18:12.013Z,6.90
2019-04-23T10:20:44.592Z,6.75
2019-04-23T10:23:16.323Z,5.55
2019-04-23T10:25:48.098Z,6.55
2019-04-23T10:28:31.668Z,6.12
2019-04-23T10:31:04.775Z,6.12
2019-04-23T10:33:37.833Z,7.20
2019-04-23T10:36:13.691Z,5.95
2019-04-23T10:38:51.286Z,6.15
2019-04-23T10:41:16.222Z,5.30
2019-04-23T10:43:54.959Z,6.70
2019-04-23T10:47:11.776Z,6.47
2019-04-23T10:50:05.113Z,5.97
2019-04-23T10:52:33.994Z,5.87
2019-04-23T10:55:06.617Z,6.78
2019-04-23T10:57:31.473Z,6.67
2019-04-23T11:00:08.848Z,6.15
2019-04-23T11:03:10.103Z,6.00
2019-04-23T11:05:29.190Z,6.10
2019-04-23T11:07:44.262Z,5.45
2019-04-23T11:10:23.456Z,5.70
2019-04-23T11:13:00.807Z,5.58
2019-04-23T11:18:12.351Z,5.40
2019-04-23T11:20:45.846Z,5.50
2019-04-23T11:23:11.517Z,5.72
2019-04-23T11:25:44.679Z,6.75
2019-04-23T11:30:57.321Z,5.33
2019-04-23T11:33:37.950Z,5.05
2019-04-23T11:36:35.589Z,5.72
2019-04-23T11:41:22.852Z,5.40
2019-04-23T11:44:52.952Z,4.90
2019-04-23T11:46:43.515Z,6.28
2019-04-23T11:51:51.394Z,5.22
2019-04-23T11:54:01.645Z,6.17
2019-04-23T11:59:07.866Z,6.42
2019-04-23T12:02:13.565Z,5.10
2019-04-23T12:05:00.895Z,5.22
2019-04-23T12:10:26.976Z,9.58
2019-04-23T12:12:46.015Z,6.55
2019-04-23T12:15:32.859Z,6.37
2019-04-23T12:18:05.469Z,6.20
2019-04-23T12:23:17.934Z,4.95
2019-04-23T12:25:58.602Z,5.72
2019-04-23T12:28:16.542Z,6.08
2019-04-23T12:30:45.419Z,5.10
2019-04-23T12:33:36.106Z,6.15
2019-04-23T12:35:51.959Z,5.15
2019-04-23T12:38:25.689Z,6.03
2019-04-23T12:41:04.981Z,5.45
2019-04-23T12:43:48.555Z,5.87
2019-04-23T12:46:03.523Z,4.70
2019-04-23T12:48:46.813Z,5.37
2019-04-23T12:51:17.208Z,5.20
2019-04-23T12:53:43.369Z,5.83
2019-04-23T12:56:34.762Z,6.40
2019-04-23T12:58:45.190Z,6.08
2019-04-23T13:01:35.736Z,6.30
2019-04-23T13:03:51.012Z,6.45
2019-04-23T13:06:27.953Z,7.87
2019-04-23T13:09:19.523Z,7.42
2019-04-23T13:11:40.854Z,6.70
2019-04-23T13:14:22.964Z,6.58
2019-04-23T13:16:58.950Z,9.13
2019-04-23T13:19:37.397Z,7.03
2019-04-23T13:22:02.751Z,6.25
2019-04-23T13:24:46.241Z,5.67
2019-04-23T13:27:23.988Z,6.60
2019-04-23T13:29:49.996Z,7.08
2019-04-23T13:32:20.820Z,10.03
2019-04-23T13:35:27.779Z,6.85
2019-04-23T13:37:37.631Z,6.37
2019-04-23T13:40:00.181Z,6.42
2019-04-23T13:42:40.334Z,6.85
2019-04-23T13:45:30.402Z,6.92
2019-04-23T13:50:24.834Z,6.78
2019-04-23T13:53:08.220Z,6.65
2019-04-23T13:55:30.328Z,7.33
2019-04-23T14:00:35.049Z,6.00
2019-04-23T14:02:56.107Z,6.12
2019-04-23T14:05:45.357Z,5.78
2019-04-23T14:08:22.793Z,8.80
2019-04-23T14:11:05.610Z,8.03
2019-04-23T14:13:39.386Z,7.80
2019-04-23T14:16:04.532Z,8.10
2019-04-23T14:18:56.245Z,6.45
2019-04-23T14:21:14.271Z,7.22
2019-04-23T14:24:00.422Z,8.33
2019-04-23T14:26:27.613Z,10.10
2019-04-23T14:31:30.442Z,7.37
2019-04-23T14:34:03.587Z,12.58
2019-04-23T14:36:30.446Z,6.90
2019-04-23T14:41:53.962Z,7.00
2019-04-23T14:44:16.042Z,9.53
2019-04-23T14:46:58.353Z,7.85
2019-04-23T14:49:34.110Z,7.50
2019-04-23T14:52:10.470Z,11.30
2019-04-23T14:55:17.871Z,8.68
2019-04-23T14:59:45.086Z,7.53
2019-04-23T15:02:22.906Z,6.75
2019-04-23T15:10:04.032Z,7.17
2019-04-23T15:12:33.578Z,6.58
2019-04-23T15:20:17.645Z,8.75
2019-04-23T15:23:19.682Z,8.10
2019-04-23T15:26:22.982Z,7.72
2019-04-23T15:28:09.147Z,9.00
2019-04-23T15:31:14.885Z,9.83
2019-04-23T15:33:51.837Z,10.98
2019-04-23T15:43:57.747Z,16.70
2019-04-23T15:46:25.291Z,13.68
2019-04-23T15:49:01.413Z,10.75
2019-04-23T15:54:02.835Z,11.30
2019-04-23T15:56:45.265Z,11.23
2019-04-23T16:03:46.953Z,12.03
2019-04-23T16:06:21.192Z,14.38
2019-04-23T16:09:21.550Z,17.00
2019-04-23T16:11:47.024Z,10.57
2019-04-23T16:14:42.472Z,9.50
2019-04-23T16:17:04.519Z,10.30
2019-04-23T16:19:45.482Z,11.43
2019-04-23T16:22:13.249Z,10.77
2019-04-23T16:24:49.022Z,14.77
2019-04-23T16:30:06.055Z,10.10
2019-04-23T16:38:10.137Z,9.27
2019-04-23T16:43:03.773Z,8.37
2019-04-23T16:45:31.741Z,7.97
2019-04-23T16:48:15.673Z,8.20
2019-04-23T16:50:57.930Z,7.43
2019-04-23T16:53:19.666Z,7.77
2019-04-23T16:55:50.071Z,9.00
2019-04-23T17:03:28.296Z,8.77
2019-04-23T17:06:08.574Z,8.87
2019-04-23T17:08:52.297Z,8.27
2019-04-23T17:13:34.543Z,8.27
2019-04-23T17:18:50.795Z,8.97
2019-04-23T17:21:24.053Z,7.47
2019-04-23T17:24:07.966Z,9.20
2019-04-23T17:26:26.009Z,8.67
2019-04-23T17:29:00.076Z,9.90
2019-04-23T17:34:12.189Z,9.33
2019-04-23T17:39:43.893Z,8.13
2019-04-23T17:45:22.795Z,8.37
2019-04-23T17:47:42.910Z,8.43
2019-04-23T17:52:52.643Z,7.47
2019-04-23T17:55:27.365Z,10.23
2019-04-23T17:58:03.927Z,17.53
2019-04-23T18:00:35.921Z,15.33
2019-04-23T18:05:25.160Z,8.87
2019-04-23T18:08:08.591Z,8.77
2019-04-23T18:10:37.060Z,8.17
2019-04-23T18:13:20.967Z,11.10
2019-04-23T18:16:04.067Z,9.07
2019-04-23T18:18:38.689Z,12.77
2019-04-23T18:21:21.483Z,17.03
2019-04-23T18:24:19.876Z,13.07
2019-04-23T18:26:56.806Z,10.40
2019-04-23T18:29:42.212Z,16.93
2019-04-23T18:32:22.138Z,37.50
2019-04-23T18:37:29.967Z,19.20
2019-04-23T18:39:54.689Z,8.50
2019-04-23T18:45:03.604Z,10.17
2019-04-23T18:47:48.998Z,7.80
2019-04-23T18:50:13.113Z,7.47
2019-04-23T18:52:48.521Z,7.87
2019-04-23T18:55:24.401Z,7.60
2019-04-23T18:57:50.438Z,7.90
2019-04-23T19:00:25.057Z,7.97
2019-04-23T19:03:31.221Z,7.57
2019-04-23T19:06:23.820Z,8.30
2019-04-23T19:11:59.366Z,7.93
2019-04-23T19:14:35.205Z,7.73
2019-04-23T19:19:35.100Z,7.50
2019-04-23T19:24:37.425Z,8.37
2019-04-23T19:27:18.878Z,7.63
2019-04-23T19:29:46.310Z,7.63
2019-04-23T19:32:24.403Z,8.27
2019-04-23T19:37:12.926Z,7.90
2019-04-23T19:39:48.494Z,8.30
2019-04-23T19:42:17.930Z,7.90
2019-04-23T19:45:08.815Z,7.90
2019-04-23T19:47:51.382Z,7.57
2019-04-23T19:50:23.970Z,8.00
2019-04-23T19:55:48.006Z,7.40
2019-04-23T19:58:33.585Z,7.40
2019-04-23T20:01:10.548Z,7.77
2019-04-23T20:03:37.551Z,7.53
2019-04-23T20:06:08.153Z,7.80
2019-04-23T20:11:15.146Z,7.10
2019-04-23T20:16:29.939Z,6.93
2019-04-23T20:18:54.652Z,6.83
2019-04-23T20:21:36.692Z,8.00
2019-04-23T20:26:45.913Z,7.33
2019-04-23T20:35:21.558Z,6.80
2019-04-23T20:38:17.240Z,6.33
2019-04-23T20:40:45.414Z,6.73
2019-04-23T20:42:58.766Z,7.00
2019-04-23T20:45:39.054Z,6.23
2019-04-23T20:48:09.337Z,6.40
2019-04-23T20:50:39.426Z,5.77
2019-04-23T20:53:03.309Z,6.60
2019-04-23T20:58:31.544Z,6.20
2019-04-23T21:03:47.195Z,5.97
2019-04-23T21:11:18.593Z,6.50
2019-04-23T21:14:10.928Z,5.83
2019-04-23T21:16:31.377Z,5.70
2019-04-23T21:18:55.045Z,5.87
2019-04-23T21:21:33.818Z,6.03
2019-04-23T21:26:35.827Z,5.53
2019-04-23T21:29:03.943Z,5.60
2019-04-23T21:31:48.432Z,6.97
2019-04-23T21:34:17.481Z,6.00
2019-04-23T21:36:49.353Z,5.87
2019-04-23T21:42:54.716Z,6.57
2019-04-23T21:45:20.909Z,5.67
2019-04-23T21:48:02.985Z,6.03
2019-04-23T21:50:25.714Z,6.77
2019-04-23T21:52:54.236Z,6.37
2019-04-23T21:55:36.896Z,6.67
2019-04-23T21:58:07.273Z,6.33
2019-04-23T22:00:39.130Z,6.10
2019-04-23T22:03:12.130Z,5.93
2019-04-23T22:05:42.445Z,6.43
2019-04-23T22:08:05.792Z,6.70
2019-04-23T22:11:00.002Z,6.53
2019-04-23T22:13:29.466Z,6.27
2019-04-23T22:16:04.103Z,6.70
2019-04-23T22:18:26.531Z,6.40
2019-04-23T22:20:59.398Z,6.80
2019-04-23T22:23:36.431Z,6.30
2019-04-23T22:26:07.288Z,6.60
2019-04-23T22:28:39.548Z,6.40
2019-04-23T22:31:12.493Z,6.83
2019-04-23T22:33:46.569Z,6.43
2019-04-23T22:38:45.079Z,6.77
2019-04-23T22:41:17.846Z,5.97
2019-04-23T22:44:03.987Z,6.33
2019-04-23T22:46:29.747Z,6.70
2019-04-23T22:49:20.022Z,6.40
2019-04-23T22:51:42.106Z,7.20
2019-04-23T22:54:03.632Z,5.63
2019-04-23T22:56:45.228Z,6.53
2019-04-23T22:59:20.755Z,6.30
2019-04-23T23:01:51.291Z,6.40
2019-04-23T23:09:25.308Z,6.57
2019-04-23T23:14:27.580Z,5.70
2019-04-23T23:17:08.784Z,6.47
2019-04-23T23:19:39.870Z,6.13
2019-04-23T23:22:11.834Z,6.37
2019-04-23T23:24:41.162Z,5.90
2019-04-23T23:27:05.490Z,5.87
2019-04-23T23:29:53.387Z,6.10
2019-04-23T23:32:22.999Z,6.07
2019-04-23T23:40:02.404Z,5.97
2019-04-23T23:42:28.193Z,6.13
2019-04-23T23:45:01.976Z,6.10
2019-04-23T23:47:28.805Z,6.00
2019-04-23T23:50:12.754Z,5.93
2019-04-23T23:55:16.474Z,6.60
2019-04-23T23:57:41.774Z,6.67
